TimeEST,TemperatureF,Dew PointF,Humidity,Sea Level PressureIn,VisibilityMPH,Wind Direction,Wind SpeedMPH,Gust SpeedMPH,PrecipitationIn,Events,Conditions,WindDirDegrees,DateUTC
12:37 AM,21.2,15.8,80,29.94,9.0,NW,10.4,18.4,0.00,Snow,Light Snow,310,2013-03-04 05:37:00
12:52 AM,21.0,14.0,74,30.02,10.0,WNW,11.5,20.7,0.00,,Overcast,300,2013-03-04 05:52:00
1:37 AM,21.2,14.0,74,29.95,10.0,WNW,11.5,20.7,N/A,,Overcast,300,2013-03-04 06:37:00
1:52 AM,21.0,12.9,71,30.04,10.0,WNW,11.5,23.0,N/A,,Overcast,300,2013-03-04 06:52:00
3:52 AM,19.9,12.0,71,30.05,10.0,West,9.2,16.1,0.00,,Overcast,280,2013-03-04 08:52:00
4:52 AM,19.9,10.9,68,30.07,10.0,WNW,9.2,19.6,N/A,,Overcast,300,2013-03-04 09:52:00
6:52 AM,19.9,12.9,74,30.10,10.0,West,11.5,-,0.00,,Overcast,280,2013-03-04 11:52:00
7:52 AM,19.9,12.0,71,30.14,10.0,NW,10.4,-,N/A,,Overcast,310,2013-03-04 12:52:00
8:34 AM,21.2,12.2,68,30.06,10.0,WNW,11.5,23.0,N/A,,Overcast,290,2013-03-04 13:34:00
8:41 AM,21.2,12.2,68,30.05,10.0,WNW,8.1,-,N/A,,Overcast,290,2013-03-04 13:41:00
8:52 AM,21.0,12.9,71,30.15,10.0,WNW,12.7,23.0,N/A,,Overcast,300,2013-03-04 13:52:00
9:52 AM,24.1,12.9,62,30.15,10.0,WNW,9.2,-,N/A,,Mostly Cloudy,300,2013-03-04 14:52:00
10:07 AM,24.8,12.2,59,30.06,10.0,WNW,13.8,18.4,N/A,,Partly Cloudy,290,2013-03-04 15:07:00
10:52 AM,26.1,12.9,58,30.14,10.0,WNW,9.2,17.3,N/A,,Clear,290,2013-03-04 15:52:00
11:52 AM,28.9,12.0,49,30.12,10.0,NW,6.9,-,N/A,,Clear,310,2013-03-04 16:52:00
12:52 PM,33.1,6.1,32,30.11,10.0,NW,11.5,17.3,N/A,,Clear,310,2013-03-04 17:52:00
1:52 PM,35.1,9.0,34,30.07,10.0,West,6.9,-,N/A,,Clear,280,2013-03-04 18:52:00
2:52 PM,37.9,9.0,30,30.06,10.0,NW,9.2,-,N/A,,Clear,310,2013-03-04 19:52:00
3:52 PM,39.0,10.9,32,30.05,10.0,NW,6.9,-,N/A,,Clear,310,2013-03-04 20:52:00
4:52 PM,39.9,10.0,29,30.05,10.0,West,6.9,-,N/A,,Clear,270,2013-03-04 21:52:00
5:52 PM,39.0,10.9,32,30.05,10.0,WNW,4.6,-,N/A,,Clear,290,2013-03-04 22:52:00
6:52 PM,37.0,10.9,34,30.07,10.0,West,3.5,-,N/A,,Clear,280,2013-03-04 23:52:00
7:52 PM,36.0,10.9,36,30.08,10.0,Calm,Calm,-,N/A,,Clear,0,2013-03-05 00:52:00
8:52 PM,35.1,12.0,39,30.08,10.0,WSW,4.6,-,N/A,,Partly Cloudy,250,2013-03-05 01:52:00
9:52 PM,36.0,14.0,41,30.06,10.0,WSW,4.6,-,N/A,,Mostly Cloudy,240,2013-03-05 02:52:00
10:52 PM,37.0,14.0,39,30.04,10.0,Calm,Calm,-,N/A,,Overcast,0,2013-03-05 03:52:00
11:52 PM,36.0,19.9,52,30.05,10.0,West,5.8,-,0.00,Rain,Light Rain,270,2013-03-05 04:52:00